Time;durP1;ratioP1;P1;durP2;ratioP2;P2;SDS_P1;SDS_P2;PMS_P1;PMS_P2;Temp;Humidity;BMP_temperature;BMP_pressure;BME280_temperature;BME280_humidity;BME280_pressure;Samples;Min_cycle;Max_cycle;Signal;HPM_P1;HPM_P2
2023/03/30 00:01:47;;;;;;;10.50;4.20;;;13.70;99.90;;;;;;5031404;28;20453;-75
2023/03/30 00:04:13;;;;;;;6.13;3.55;;;13.70;99.90;;;;;;5033280;28;20022;-75
2023/03/30 00:06:41;;;;;;;7.88;3.88;;;13.70;99.90;;;;;;5031876;28;20076;-75
2023/03/30 00:09:06;;;;;;;9.95;4.40;;;13.70;99.90;;;;;;5031799;28;20514;-76
2023/03/30 00:11:32;;;;;;;7.82;4.57;;;13.80;99.90;;;;;;5032086;28;20030;-76
2023/03/30 00:13:59;;;;;;;8.57;3.97;;;13.80;99.90;;;;;;5032718;28;20071;-75
2023/03/30 00:16:26;;;;;;;5.97;3.75;;;13.80;99.90;;;;;;5030464;28;20041;-75
2023/03/30 00:18:51;;;;;;;5.45;3.33;;;13.90;99.90;;;;;;5030528;28;20049;-75
2023/03/30 00:21:19;;;;;;;8.57;4.43;;;13.90;99.90;;;;;;5028302;28;20422;-75
2023/03/30 00:23:46;;;;;;;7.38;3.97;;;13.90;99.90;;;;;;5028767;28;20083;-76
2023/03/30 00:26:12;;;;;;;7.47;3.70;;;13.90;99.90;;;;;;5029444;28;20232;-75
2023/03/30 00:28:38;;;;;;;6.57;3.80;;;13.90;99.90;;;;;;5030186;28;20040;-75
2023/03/30 00:31:04;;;;;;;4.40;3.30;;;13.90;99.90;;;;;;5037269;28;20041;-76
2023/03/30 00:33:30;;;;;;;5.18;3.20;;;13.80;99.90;;;;;;5030330;28;20022;-76
2023/03/30 00:35:57;;;;;;;5.43;3.20;;;13.80;99.90;;;;;;5029933;28;20021;-75
2023/03/30 00:38:24;;;;;;;4.68;3.10;;;13.80;99.90;;;;;;5028948;28;20025;-75
2023/03/30 00:40:56;;;;;;;7.55;3.58;;;13.80;99.90;;;;;;5029897;28;20108;-75
2023/03/30 00:43:22;;;;;;;6.70;3.33;;;13.80;99.90;;;;;;5029699;28;20018;-75
2023/03/30 00:45:48;;;;;;;9.52;3.30;;;13.80;99.90;;;;;;5030140;28;20037;-76
2023/03/30 00:48:26;;;;;;;6.95;2.83;;;13.80;99.90;;;;;;5030592;28;20369;-76
2023/03/30 00:50:54;;;;;;;5.60;2.65;;;13.80;99.90;;;;;;5030723;28;20037;-75
2023/03/30 00:53:22;;;;;;;8.00;3.30;;;13.90;99.90;;;;;;5030091;28;20034;-76
2023/03/30 00:55:50;;;;;;;3.80;1.98;;;13.90;99.90;;;;;;5031461;28;20035;-76
2023/03/30 00:58:17;;;;;;;4.63;2.85;;;13.90;99.90;;;;;;5031186;28;20029;-75
2023/03/30 01:00:46;;;;;;;10.95;3.83;;;13.90;99.90;;;;;;5031377;28;20076;-75
2023/03/30 01:03:31;;;;;;;5.22;2.95;;;14.00;99.90;;;;;;5029152;28;20049;-76
2023/03/30 01:05:59;;;;;;;5.68;3.00;;;14.00;99.90;;;;;;5030717;28;20105;-76
2023/03/30 01:08:31;;;;;;;5.35;2.60;;;14.00;99.90;;;;;;5030530;28;20359;-76
2023/03/30 01:11:00;;;;;;;4.85;2.47;;;14.00;99.90;;;;;;5030386;28;20033;-75
2023/03/30 01:13:27;;;;;;;4.03;2.25;;;14.00;99.90;;;;;;5031264;28;20470;-75
2023/03/30 01:16:17;;;;;;;3.72;2.08;;;14.00;99.90;;;;;;5029274;28;20022;-76
2023/03/30 01:19:15;;;;;;;6.00;3.20;;;14.00;99.90;;;;;;5031258;28;20049;-76
2023/03/30 01:22:03;;;;;;;5.55;3.10;;;14.00;99.90;;;;;;5030995;28;20026;-75
2023/03/30 01:25:01;;;;;;;5.80;3.65;;;14.00;99.90;;;;;;5014925;28;20022;-76
2023/03/30 01:27:47;;;;;;;4.93;2.42;;;14.00;99.90;;;;;;5027722;28;20118;-75
2023/03/30 01:30:53;;;;;;;6.63;2.38;;;14.00;99.90;;;;;;5033902;28;20573;-76
2023/03/30 01:33:49;;;;;;;7.20;2.40;;;14.00;99.90;;;;;;5032392;28;20022;-75
2023/03/30 01:36:34;;;;;;;8.93;2.70;;;14.00;99.90;;;;;;5033127;28;20018;-75
2023/03/30 01:39:18;;;;;;;5.45;2.97;;;13.90;99.90;;;;;;5033232;28;20033;-75
2023/03/30 01:42:16;;;;;;;3.75;2.17;;;13.90;99.90;;;;;;5033394;28;20053;-75
2023/03/30 01:45:12;;;;;;;7.60;2.80;;;13.90;99.90;;;;;;5033563;28;20547;-75
2023/03/30 01:48:08;;;;;;;5.55;3.17;;;14.00;99.90;;;;;;5034475;28;20029;-76
2023/03/30 01:50:39;;;;;;;4.90;2.63;;;14.00;99.90;;;;;;5018449;28;20033;-75
2023/03/30 01:53:15;;;;;;;7.03;2.30;;;14.00;99.90;;;;;;5034050;28;20433;-76
2023/03/30 01:56:07;;;;;;;4.25;2.88;;;14.00;99.90;;;;;;5034339;28;20029;-75
2023/03/30 01:58:35;;;;;;;4.38;2.45;;;14.00;99.90;;;;;;5034330;28;20021;-76
2023/03/30 02:01:02;;;;;;;5.88;2.63;;;14.00;99.90;;;;;;5034861;28;20029;-75
2023/03/30 02:03:31;;;;;;;5.20;2.45;;;14.10;99.90;;;;;;5034170;28;20029;-75
2023/03/30 02:06:14;;;;;;;5.47;3.28;;;14.00;99.90;;;;;;5033235;28;20021;-75
2023/03/30 02:08:40;;;;;;;6.88;3.08;;;14.00;99.90;;;;;;5033954;28;20022;-76
2023/03/30 02:11:06;;;;;;;6.60;2.63;;;13.90;99.90;;;;;;5032437;28;20482;-75
2023/03/30 02:13:32;;;;;;;4.18;2.30;;;13.90;99.90;;;;;;5033676;28;20040;-75
2023/03/30 02:16:21;;;;;;;8.07;2.88;;;13.90;99.90;;;;;;5033838;28;20109;-75
2023/03/30 02:18:47;;;;;;;5.05;2.10;;;13.90;99.90;;;;;;5031673;28;20037;-75
2023/03/30 02:21:14;;;;;;;4.07;2.35;;;13.90;99.90;;;;;;5031284;28;20033;-76
2023/03/30 02:23:42;;;;;;;4.85;2.88;;;13.90;99.90;;;;;;5032794;28;20532;-75
2023/03/30 02:26:09;;;;;;;5.85;2.72;;;13.90;99.90;;;;;;5032647;28;20033;-76
2023/03/30 02:28:35;;;;;;;4.60;2.55;;;13.90;99.90;;;;;;5046041;28;20025;-76
2023/03/30 02:31:00;;;;;;;7.35;2.78;;;13.80;99.90;;;;;;5032856;28;20026;-75
2023/03/30 02:33:26;;;;;;;2.72;1.90;;;13.80;99.90;;;;;;5035983;28;20021;-75
2023/03/30 02:36:01;;;;;;;6.28;2.50;;;13.70;99.90;;;;;;5026006;28;20033;-75
2023/03/30 02:38:44;;;;;;;6.00;1.67;;;13.60;99.90;;;;;;5031998;28;20025;-75
2023/03/30 02:41:27;;;;;;;5.28;1.80;;;13.60;99.90;;;;;;5030558;28;20064;-75
2023/03/30 02:44:37;;;;;;;6.65;2.00;;;13.50;99.90;;;;;;5041300;28;20025;-75
2023/03/30 02:47:12;;;;;;;3.03;1.50;;;13.50;99.90;;;;;;4998051;28;20049;-76
2023/03/30 02:50:06;;;;;;;4.85;2.25;;;13.60;99.90;;;;;;5031549;28;20104;-75
2023/03/30 02:52:58;;;;;;;5.03;1.67;;;13.70;99.90;;;;;;4985549;28;20096;-75
2023/03/30 02:55:33;;;;;;;3.53;1.48;;;13.80;99.90;;;;;;4956549;28;20050;-75
2023/03/30 02:58:07;;;;;;;2.92;1.50;;;13.80;99.90;;;;;;4943813;28;20481;-75
2023/03/30 03:00:43;;;;;;;8.18;2.25;;;13.80;99.90;;;;;;4967966;28;20069;-75
2023/03/30 03:03:30;;;;;;;6.22;1.88;;;13.90;99.90;;;;;;4985146;28;20059;-75
2023/03/30 03:06:01;;;;;;;3.58;1.73;;;14.00;99.90;;;;;;4983343;28;20077;-75
2023/03/30 03:08:29;;;;;;;5.10;1.42;;;14.10;99.90;;;;;;4957923;28;20037;-75
2023/03/30 03:10:54;;;;;;;3.85;1.30;;;14.10;99.90;;;;;;4981959;28;20534;-75
2023/03/30 03:13:20;;;;;;;4.53;1.50;;;14.10;99.90;;;;;;4981007;28;20023;-75
2023/03/30 03:15:48;;;;;;;5.28;1.08;;;14.10;99.90;;;;;;4984051;28;20027;-76
2023/03/30 03:18:14;;;;;;;2.63;1.10;;;14.20;99.90;;;;;;4985547;28;20526;-76
2023/03/30 03:20:39;;;;;;;3.47;1.40;;;14.20;99.90;;;;;;4977599;28;20038;-75
2023/03/30 03:23:05;;;;;;;4.95;2.47;;;14.20;99.90;;;;;;4987684;28;20096;-75
2023/03/30 03:25:31;;;;;;;5.55;1.65;;;14.20;99.90;;;;;;4988436;28;20069;-75
2023/03/30 03:27:57;;;;;;;4.78;1.65;;;14.20;99.90;;;;;;4987158;28;20158;-75
2023/03/30 03:30:23;;;;;;;4.28;2.65;;;14.20;99.90;;;;;;5042105;28;20099;-76
2023/03/30 03:32:50;;;;;;;6.15;2.15;;;14.20;99.90;;;;;;5048063;28;20493;-75
2023/03/30 03:35:16;;;;;;;2.70;1.30;;;14.20;99.90;;;;;;5045874;28;20021;-76
2023/03/30 03:37:41;;;;;;;2.45;1.48;;;14.10;99.90;;;;;;5040868;28;20136;-76
2023/03/30 03:40:10;;;;;;;2.33;1.20;;;14.10;99.90;;;;;;5045033;28;20778;-76
2023/03/30 03:42:35;;;;;;;3.13;1.88;;;14.10;99.90;;;;;;5041300;28;20551;-75
2023/03/30 03:45:01;;;;;;;3.40;1.88;;;14.00;99.90;;;;;;5044083;28;20033;-75
2023/03/30 03:47:26;;;;;;;3.20;1.92;;;13.90;99.90;;;;;;5034444;28;20025;-75
2023/03/30 03:49:53;;;;;;;3.33;1.52;;;13.80;99.90;;;;;;5047288;28;20034;-75
2023/03/30 03:52:18;;;;;;;4.80;1.38;;;13.80;99.90;;;;;;5042482;28;20363;-75
2023/03/30 03:54:44;;;;;;;5.93;1.65;;;13.70;99.90;;;;;;5049039;28;20047;-75
2023/03/30 03:57:09;;;;;;;3.55;1.00;;;13.70;99.90;;;;;;5050053;28;20071;-75
2023/03/30 03:59:35;;;;;;;4.43;1.83;;;13.70;99.90;;;;;;5036909;28;20398;-75
2023/03/30 04:02:01;;;;;;;3.95;1.40;;;13.60;99.90;;;;;;5044222;28;20049;-74
2023/03/30 04:04:26;;;;;;;3.42;1.40;;;13.70;99.90;;;;;;5034115;28;20033;-74
2023/03/30 04:06:52;;;;;;;3.97;1.17;;;13.80;99.90;;;;;;5049656;28;20528;-74
2023/03/30 04:09:18;;;;;;;5.55;1.08;;;13.80;99.90;;;;;;5038570;28;20096;-74
2023/03/30 04:11:43;;;;;;;3.10;1.20;;;13.90;99.90;;;;;;5043002;28;20063;-74
2023/03/30 04:14:09;;;;;;;2.97;1.33;;;13.90;99.90;;;;;;5042411;28;20017;-75
2023/03/30 04:16:34;;;;;;;5.35;0.98;;;14.00;99.90;;;;;;5058948;28;20025;-75
2023/03/30 04:19:00;;;;;;;5.93;1.13;;;14.00;99.90;;;;;;5040043;28;20026;-75
2023/03/30 04:21:28;;;;;;;3.20;0.93;;;14.00;99.90;;;;;;5040392;28;20128;-74
2023/03/30 04:23:54;;;;;;;3.67;0.90;;;14.10;99.90;;;;;;5042397;28;20017;-76
2023/03/30 04:26:20;;;;;;;5.28;1.15;;;14.10;99.90;;;;;;5033764;28;20041;-75
2023/03/30 04:28:45;;;;;;;3.38;0.80;;;14.10;99.90;;;;;;5037831;28;20104;-75
2023/03/30 04:31:12;;;;;;;2.67;0.98;;;14.10;99.90;;;;;;5042465;28;20470;-75
2023/03/30 04:33:49;;;;;;;4.38;1.00;;;14.10;99.90;;;;;;5030331;28;21280;-75
2023/03/30 04:36:16;;;;;;;5.57;1.25;;;14.10;99.90;;;;;;5039817;28;20034;-75
2023/03/30 04:38:56;;;;;;;2.55;1.00;;;14.10;99.90;;;;;;5046864;28;20386;-75
2023/03/30 04:41:28;;;;;;;3.20;0.93;;;14.10;99.90;;;;;;5038224;28;20029;-75
2023/03/30 04:43:54;;;;;;;4.55;1.35;;;14.10;99.90;;;;;;5038369;28;20078;-75
2023/03/30 04:46:20;;;;;;;3.17;0.85;;;14.10;99.90;;;;;;5046272;28;20024;-75
2023/03/30 04:48:45;;;;;;;5.15;1.33;;;14.10;99.90;;;;;;5039471;28;20026;-75
2023/03/30 04:51:11;;;;;;;4.20;0.90;;;14.10;99.90;;;;;;5037728;28;20051;-75
2023/03/30 04:53:36;;;;;;;3.22;1.10;;;14.10;99.90;;;;;;5044076;28;20036;-76
2023/03/30 04:56:02;;;;;;;4.90;1.70;;;14.10;99.90;;;;;;5043364;28;20471;-75
2023/03/30 04:58:27;;;;;;;4.40;1.30;;;14.10;99.90;;;;;;5034133;28;20498;-75
2023/03/30 05:00:54;;;;;;;5.45;1.67;;;14.10;99.90;;;;;;5045050;28;20108;-75
2023/03/30 05:03:20;;;;;;;3.72;1.75;;;14.10;99.90;;;;;;5042321;28;20128;-75
2023/03/30 05:05:45;;;;;;;5.40;1.75;;;14.00;99.90;;;;;;5031401;28;20108;-75
2023/03/30 05:08:11;;;;;;;4.53;1.50;;;14.00;99.90;;;;;;5034305;28;20436;-75
2023/03/30 05:10:37;;;;;;;4.03;1.92;;;13.90;99.90;;;;;;5050265;28;20498;-75
2023/03/30 05:13:02;;;;;;;7.85;2.17;;;13.80;99.90;;;;;;5050698;28;20047;-75
2023/03/30 05:15:28;;;;;;;4.07;2.17;;;13.80;99.90;;;;;;5039426;28;20021;-75
2023/03/30 05:17:53;;;;;;;7.07;1.73;;;13.80;99.90;;;;;;5040268;28;20100;-75
2023/03/30 05:20:19;;;;;;;3.65;2.05;;;13.70;99.90;;;;;;5047765;28;20060;-75
2023/03/30 05:22:45;;;;;;;6.65;2.28;;;13.70;99.90;;;;;;5043046;28;20080;-75
2023/03/30 05:25:11;;;;;;;7.93;2.72;;;13.70;99.90;;;;;;5033629;28;20528;-75
2023/03/30 05:27:37;;;;;;;8.32;3.00;;;13.70;99.90;;;;;;5033554;28;20018;-75
2023/03/30 05:30:03;;;;;;;5.20;2.63;;;13.60;99.90;;;;;;5033463;28;20039;-75
2023/03/30 05:32:28;;;;;;;4.88;2.55;;;13.60;99.90;;;;;;5042348;28;20053;-75
2023/03/30 05:34:54;;;;;;;7.10;2.40;;;13.50;99.90;;;;;;5033241;28;20052;-75
2023/03/30 05:37:20;;;;;;;8.38;2.53;;;13.50;99.90;;;;;;5033463;28;20085;-75
2023/03/30 05:39:47;;;;;;;4.93;2.70;;;13.40;99.90;;;;;;5026291;28;20393;-75
2023/03/30 05:42:12;;;;;;;5.70;2.65;;;13.40;99.90;;;;;;5041154;28;20025;-75
2023/03/30 05:44:38;;;;;;;8.57;2.53;;;13.40;99.90;;;;;;5032216;28;20067;-75
2023/03/30 05:47:04;;;;;;;8.07;3.00;;;13.40;99.90;;;;;;5041177;28;20029;-76
2023/03/30 05:49:30;;;;;;;7.60;2.83;;;13.30;99.90;;;;;;5052304;28;20090;-75
2023/03/30 05:51:55;;;;;;;6.43;2.83;;;13.30;99.90;;;;;;5039270;28;20094;-75
2023/03/30 05:54:21;;;;;;;8.20;2.95;;;13.40;99.90;;;;;;5026840;28;20104;-75
2023/03/30 05:56:47;;;;;;;8.00;3.60;;;13.30;99.90;;;;;;5032966;28;20028;-75
2023/03/30 05:59:13;;;;;;;9.70;3.17;;;13.30;99.90;;;;;;5041296;28;20054;-75
2023/03/30 06:01:39;;;;;;;6.68;3.90;;;13.30;99.90;;;;;;5044184;28;20041;-75
2023/03/30 06:04:05;;;;;;;6.60;3.70;;;13.30;99.90;;;;;;5043155;28;20028;-75
2023/03/30 06:06:31;;;;;;;6.95;3.38;;;13.40;99.90;;;;;;5045975;28;20021;-75
2023/03/30 06:08:56;;;;;;;11.10;3.97;;;13.40;99.90;;;;;;5042505;28;20512;-75
2023/03/30 06:11:22;;;;;;;7.88;3.05;;;13.40;99.90;;;;;;5043763;28;20045;-74
2023/03/30 06:13:48;;;;;;;5.40;2.78;;;13.50;99.90;;;;;;5040785;28;20057;-73
2023/03/30 06:16:13;;;;;;;8.73;2.92;;;13.40;99.90;;;;;;5039329;28;20018;-73
2023/03/30 06:18:39;;;;;;;5.07;2.75;;;13.50;99.90;;;;;;5034457;28;20024;-73
2023/03/30 06:21:05;;;;;;;6.90;2.30;;;13.50;99.90;;;;;;5035150;28;20040;-73
2023/03/30 06:23:32;;;;;;;12.45;3.10;;;13.50;99.90;;;;;;5037716;28;20032;-73
2023/03/30 06:25:58;;;;;;;7.78;3.08;;;13.60;99.90;;;;;;5034513;28;20037;-73
2023/03/30 06:28:24;;;;;;;9.27;3.70;;;13.60;99.90;;;;;;5041896;28;20017;-73
2023/03/30 06:30:50;;;;;;;11.57;2.55;;;13.60;99.90;;;;;;5045143;28;20445;-74
2023/03/30 06:33:17;;;;;;;12.80;3.30;;;13.70;99.90;;;;;;5050223;28;20017;-73
2023/03/30 06:35:50;;;;;;;10.15;2.90;;;13.70;99.90;;;;;;5037240;28;20105;-73
2023/03/30 06:38:16;;;;;;;14.35;2.60;;;13.70;99.90;;;;;;5035382;28;20017;-73
2023/03/30 06:40:42;;;;;;;11.55;3.60;;;13.70;99.90;;;;;;5049629;28;20091;-71
2023/03/30 06:43:17;;;;;;;8.13;3.08;;;13.80;99.90;;;;;;5051002;28;20029;-72
2023/03/30 06:45:48;;;;;;;9.20;2.95;;;13.80;99.90;;;;;;5050972;28;20017;-71
2023/03/30 06:48:14;;;;;;;12.45;3.75;;;13.80;99.90;;;;;;5050678;28;20025;-73
2023/03/30 06:50:39;;;;;;;8.50;3.25;;;13.70;99.90;;;;;;5050538;28;20032;-73
2023/03/30 06:53:05;;;;;;;12.32;3.05;;;13.70;99.90;;;;;;5048214;28;20037;-73
2023/03/30 06:55:31;;;;;;;9.60;2.80;;;13.60;99.90;;;;;;5050092;28;20021;-72
2023/03/30 06:57:57;;;;;;;14.25;2.80;;;13.50;99.90;;;;;;5036481;28;20072;-72
2023/03/30 07:00:23;;;;;;;7.90;3.05;;;13.50;99.90;;;;;;5039939;28;20056;-72
2023/03/30 07:02:48;;;;;;;12.25;2.95;;;13.50;99.90;;;;;;5012694;28;1044401;-72
2023/03/30 07:05:14;;;;;;;8.73;2.70;;;13.50;99.90;;;;;;5051230;28;20040;-74
2023/03/30 07:07:40;;;;;;;12.82;2.38;;;13.50;99.90;;;;;;5042245;28;20029;-72
2023/03/30 07:10:09;;;;;;;12.32;2.83;;;13.50;99.90;;;;;;5033030;28;20029;-72
2023/03/30 07:12:38;;;;;;;12.90;3.08;;;13.50;99.90;;;;;;5031405;28;20091;-72
2023/03/30 07:15:06;;;;;;;10.65;2.92;;;13.60;99.90;;;;;;5032911;28;20017;-73
2023/03/30 07:17:33;;;;;;;6.93;2.47;;;13.60;99.90;;;;;;5034249;28;20017;-72
2023/03/30 07:19:59;;;;;;;8.10;2.75;;;13.70;99.90;;;;;;5024566;28;20033;-72
2023/03/30 07:22:26;;;;;;;9.50;3.47;;;13.60;99.90;;;;;;5037683;28;20010;-72
2023/03/30 07:24:51;;;;;;;11.23;3.53;;;13.60;99.90;;;;;;5031858;28;20163;-73
2023/03/30 07:27:17;;;;;;;8.35;2.97;;;13.70;99.90;;;;;;5031150;28;20030;-72
2023/03/30 07:29:42;;;;;;;7.82;3.15;;;13.70;99.90;;;;;;5040529;28;20021;-72
2023/03/30 07:32:08;;;;;;;7.97;2.78;;;13.80;99.90;;;;;;5041654;28;20128;-72
2023/03/30 07:34:33;;;;;;;11.32;2.95;;;13.90;99.90;;;;;;5044404;28;20024;-73
2023/03/30 07:37:00;;;;;;;9.10;2.85;;;14.10;99.90;;;;;;5035552;28;20029;-72
2023/03/30 07:39:26;;;;;;;6.85;2.55;;;14.20;99.90;;;;;;5029463;28;20462;-72
2023/03/30 07:41:52;;;;;;;10.10;2.65;;;14.30;99.90;;;;;;5037171;28;20025;-73
2023/03/30 07:44:17;;;;;;;8.20;2.38;;;14.40;99.90;;;;;;5032534;28;20108;-72
2023/03/30 07:46:43;;;;;;;9.98;2.25;;;14.50;99.90;;;;;;5029980;28;20433;-73
2023/03/30 07:49:09;;;;;;;14.95;2.55;;;14.60;99.90;;;;;;5033009;28;20104;-74
2023/03/30 07:51:34;;;;;;;14.70;2.63;;;14.50;99.90;;;;;;5048423;28;20021;-71
2023/03/30 07:54:00;;;;;;;10.02;2.65;;;14.50;99.90;;;;;;5044683;28;20033;-73
2023/03/30 07:56:26;;;;;;;13.98;2.65;;;14.50;99.90;;;;;;5047700;28;20025;-73
2023/03/30 07:58:52;;;;;;;14.45;2.30;;;14.50;99.90;;;;;;5037247;28;20815;-73
2023/03/30 08:01:18;;;;;;;16.60;3.08;;;14.50;99.90;;;;;;5033057;28;20108;-73
2023/03/30 08:03:43;;;;;;;6.32;2.25;;;14.40;99.90;;;;;;5032482;28;20754;-73
2023/03/30 08:06:11;;;;;;;11.90;2.45;;;14.40;99.90;;;;;;5031979;28;20426;-73
2023/03/30 08:08:39;;;;;;;11.80;2.78;;;14.40;99.90;;;;;;5031852;28;20075;-72
2023/03/30 08:11:07;;;;;;;16.55;3.08;;;14.50;99.90;;;;;;5032249;28;20072;-73
2023/03/30 08:13:33;;;;;;;17.77;3.22;;;14.50;99.90;;;;;;5033698;28;20066;-72
2023/03/30 08:15:59;;;;;;;17.80;3.75;;;14.40;99.90;;;;;;5020814;28;20022;-73
2023/03/30 08:18:25;;;;;;;19.95;3.08;;;14.40;99.90;;;;;;5033191;28;20056;-72
2023/03/30 08:20:54;;;;;;;11.60;2.70;;;14.40;99.90;;;;;;5036935;28;20102;-72
2023/03/30 08:23:20;;;;;;;7.53;2.60;;;14.50;99.90;;;;;;5036790;28;20029;-72
2023/03/30 08:25:51;;;;;;;17.58;3.22;;;14.50;99.90;;;;;;5039802;28;20128;-72
2023/03/30 08:28:17;;;;;;;17.33;3.10;;;14.50;99.90;;;;;;5043132;28;20021;-72
2023/03/30 08:30:42;;;;;;;9.57;3.05;;;14.60;99.90;;;;;;5042425;28;20040;-72
2023/03/30 08:33:08;;;;;;;11.00;2.65;;;14.70;99.90;;;;;;5033146;28;20025;-72
2023/03/30 08:35:34;;;;;;;11.68;3.38;;;14.80;99.90;;;;;;5030956;28;20022;-72
2023/03/30 08:37:59;;;;;;;17.27;3.40;;;14.80;99.90;;;;;;5043977;28;20072;-72
2023/03/30 08:40:26;;;;;;;17.33;3.58;;;14.80;99.90;;;;;;5040747;28;20022;-73
2023/03/30 08:43:23;;;;;;;15.30;2.80;;;14.90;99.90;;;;;;5036129;28;20033;-73
2023/03/30 08:45:50;;;;;;;11.00;2.75;;;15.00;99.90;;;;;;5019381;28;20092;-73
2023/03/30 08:48:20;;;;;;;10.70;2.97;;;15.10;99.90;;;;;;5042137;28;20139;-74
2023/03/30 08:50:54;;;;;;;18.95;3.35;;;15.00;99.90;;;;;;5038566;28;20036;-73
2023/03/30 08:53:20;;;;;;;17.02;3.75;;;15.10;99.90;;;;;;5045324;28;20025;-73
2023/03/30 08:55:54;;;;;;;13.35;3.28;;;15.00;99.90;;;;;;5037707;28;20029;-72
2023/03/30 08:59:13;;;;;;;12.80;3.05;;;15.00;99.90;;;;;;5034090;28;20101;-73
2023/03/30 09:01:52;;;;;;;14.52;3.25;;;15.00;99.90;;;;;;4948175;28;20039;-72
2023/03/30 09:04:29;;;;;;;14.88;3.30;;;15.00;99.90;;;;;;4958651;28;20095;-72
2023/03/30 09:07:02;;;;;;;14.52;3.47;;;14.90;99.90;;;;;;4954214;28;20114;-72
2023/03/30 09:09:31;;;;;;;10.45;2.97;;;14.90;99.90;;;;;;4939524;28;20041;-72
2023/03/30 09:12:23;;;;;;;10.73;3.33;;;15.00;99.90;;;;;;4959102;28;20090;-72
2023/03/30 09:14:57;;;;;;;18.02;3.65;;;14.90;99.90;;;;;;4949712;28;20031;-73
2023/03/30 09:17:37;;;;;;;11.02;3.88;;;14.90;99.90;;;;;;4934857;29;20034;-73
2023/03/30 09:20:08;;;;;;;21.98;4.03;;;14.80;99.90;;;;;;4945196;28;20026;-73
2023/03/30 09:22:44;;;;;;;20.33;3.80;;;14.70;99.90;;;;;;4950127;28;20019;-73
2023/03/30 09:25:24;;;;;;;13.43;3.13;;;14.60;99.90;;;;;;4950624;28;20066;-72
2023/03/30 09:28:04;;;;;;;15.63;4.20;;;14.60;99.90;;;;;;4930778;29;20026;-72
2023/03/30 09:30:41;;;;;;;18.20;5.43;;;14.40;99.90;;;;;;4955197;28;20034;-73
2023/03/30 09:33:24;;;;;;;14.55;3.80;;;14.40;99.90;;;;;;5030440;28;20041;-72
2023/03/30 09:36:02;;;;;;;14.30;3.78;;;14.40;99.90;;;;;;5033646;28;20026;-74
2023/03/30 09:38:29;;;;;;;15.40;4.15;;;14.40;99.90;;;;;;5042521;28;20016;-73
2023/03/30 09:41:10;;;;;;;17.85;4.57;;;14.50;99.90;;;;;;5038099;28;20018;-72
2023/03/30 09:43:44;;;;;;;22.13;3.90;;;14.60;99.90;;;;;;5029713;28;20486;-73
2023/03/30 09:46:12;;;;;;;21.02;3.60;;;14.80;99.90;;;;;;5026361;28;20026;-73
2023/03/30 09:48:48;;;;;;;16.73;3.95;;;14.70;99.90;;;;;;5025933;28;20029;-72
2023/03/30 09:51:16;;;;;;;24.83;5.25;;;14.70;99.90;;;;;;5031709;28;20506;-75
2023/03/30 09:53:44;;;;;;;13.85;4.75;;;14.70;99.90;;;;;;5031471;28;20018;-74
2023/03/30 09:56:27;;;;;;;17.45;4.18;;;14.70;99.90;;;;;;5037568;28;20017;-76
2023/03/30 09:58:53;;;;;;;14.88;3.22;;;14.80;99.90;;;;;;5035287;28;20026;-75
2023/03/30 10:01:22;;;;;;;21.17;4.65;;;14.80;99.90;;;;;;5042175;28;20057;-74
2023/03/30 10:04:09;;;;;;;17.25;4.10;;;14.90;99.90;;;;;;5038258;28;20018;-75
2023/03/30 10:06:47;;;;;;;16.08;3.60;;;15.00;99.90;;;;;;5040228;28;20049;-73
2023/03/30 10:09:13;;;;;;;19.45;4.72;;;15.20;99.90;;;;;;5038982;28;20498;-73
2023/03/30 10:11:46;;;;;;;19.20;3.85;;;15.40;99.90;;;;;;5042360;28;20550;-72
2023/03/30 10:14:33;;;;;;;15.85;5.07;;;15.50;99.90;;;;;;5045470;28;20082;-72
2023/03/30 10:17:00;;;;;;;19.98;4.28;;;15.60;99.90;;;;;;5043534;28;20025;-73
2023/03/30 10:19:26;;;;;;;17.35;4.45;;;15.70;99.90;;;;;;5044731;28;20386;-73
2023/03/30 10:21:57;;;;;;;16.23;3.58;;;15.70;99.90;;;;;;5033022;28;20461;-73
2023/03/30 10:24:32;;;;;;;18.88;5.35;;;15.70;99.90;;;;;;5037503;28;20075;-73
2023/03/30 10:27:08;;;;;;;19.98;4.68;;;15.70;99.90;;;;;;5041602;28;20043;-73
2023/03/30 10:29:34;;;;;;;18.42;3.72;;;15.70;99.90;;;;;;5038826;28;20029;-73
2023/03/30 10:32:15;;;;;;;21.45;4.28;;;15.60;99.90;;;;;;5036602;28;20041;-72
2023/03/30 10:34:55;;;;;;;18.33;4.03;;;15.60;99.90;;;;;;5034076;28;20032;-73
2023/03/30 10:37:24;;;;;;;19.00;4.47;;;15.60;99.90;;;;;;5036821;28;20482;-72
2023/03/30 10:39:51;;;;;;;12.15;3.78;;;15.60;99.90;;;;;;5035024;28;20025;-73
2023/03/30 10:42:22;;;;;;;22.42;4.25;;;15.50;99.90;;;;;;5034327;28;20025;-74
2023/03/30 10:45:00;;;;;;;13.00;4.15;;;15.60;99.90;;;;;;5035830;28;20108;-72
2023/03/30 10:47:52;;;;;;;16.50;4.78;;;15.70;99.90;;;;;;5034099;28;20034;-73
2023/03/30 10:50:51;;;;;;;17.45;4.45;;;15.80;99.90;;;;;;5023548;28;20038;-73
2023/03/30 10:53:43;;;;;;;19.55;5.25;;;15.80;99.90;;;;;;5031467;28;20022;-73
2023/03/30 10:56:25;;;;;;;15.10;4.30;;;15.70;99.90;;;;;;5035095;28;20055;-73
2023/03/30 10:58:58;;;;;;;22.75;5.72;;;15.80;99.90;;;;;;5033419;28;20029;-73
2023/03/30 11:01:35;;;;;;;19.83;5.93;;;15.80;99.90;;;;;;5031076;28;20410;-73
2023/03/30 11:04:09;;;;;;;19.70;6.53;;;15.80;99.90;;;;;;5035399;28;20040;-73
2023/03/30 11:06:45;;;;;;;22.60;5.70;;;15.70;99.90;;;;;;5031717;28;20052;-73
2023/03/30 11:09:20;;;;;;;35.67;6.90;;;15.60;99.90;;;;;;5034518;28;20037;-73
2023/03/30 11:11:55;;;;;;;22.40;5.90;;;15.50;99.90;;;;;;5030382;28;20022;-72
2023/03/30 11:14:28;;;;;;;21.58;5.30;;;15.30;99.90;;;;;;5033619;28;20009;-72
2023/03/30 11:17:00;;;;;;;28.67;7.43;;;15.20;99.90;;;;;;5034906;28;20017;-72
2023/03/30 11:19:38;;;;;;;24.42;5.93;;;15.20;99.90;;;;;;5032057;28;20025;-73
2023/03/30 11:22:20;;;;;;;24.45;6.40;;;15.20;99.90;;;;;;5067725;28;20029;-73
2023/03/30 11:24:49;;;;;;;15.80;5.07;;;15.40;99.90;;;;;;5034834;28;20104;-73
2023/03/30 11:27:30;;;;;;;22.50;5.45;;;15.50;99.90;;;;;;5033093;28;20045;-72
2023/03/30 11:30:02;;;;;;;24.38;6.32;;;15.60;99.90;;;;;;5036612;28;20013;-73
2023/03/30 11:32:45;;;;;;;20.17;5.35;;;15.70;99.90;;;;;;5040765;28;20071;-73
2023/03/30 11:35:21;;;;;;;25.88;6.40;;;15.80;99.90;;;;;;5030029;28;20167;-73
2023/03/30 11:38:13;;;;;;;21.15;4.43;;;15.90;99.90;;;;;;5031076;28;20021;-73
2023/03/30 11:40:50;;;;;;;13.65;3.65;;;16.10;99.90;;;;;;5021773;28;20030;-73
2023/03/30 11:43:18;;;;;;;11.98;3.28;;;16.30;99.90;;;;;;5035822;28;20108;-73
2023/03/30 11:45:56;;;;;;;16.05;3.20;;;16.40;99.90;;;;;;5049500;28;20021;-73
2023/03/30 11:48:46;;;;;;;15.45;3.53;;;16.60;99.90;;;;;;5047161;28;20029;-73
2023/03/30 11:51:31;;;;;;;15.85;3.42;;;16.70;99.90;;;;;;5039605;28;20605;-73
2023/03/30 11:54:22;;;;;;;12.73;2.80;;;16.80;99.90;;;;;;5041619;28;20798;-73
2023/03/30 11:57:18;;;;;;;17.95;4.55;;;16.90;99.90;;;;;;5030174;28;20020;-73
2023/03/30 12:00:09;;;;;;;15.35;3.50;;;16.90;99.90;;;;;;5049895;28;20066;-73
2023/03/30 12:02:42;;;;;;;18.52;3.63;;;16.80;99.90;;;;;;5046089;28;20042;-73
2023/03/30 12:05:26;;;;;;;14.10;3.47;;;16.80;99.90;;;;;;5040814;28;20036;-73
2023/03/30 12:08:29;;;;;;;13.98;3.35;;;16.70;99.90;;;;;;5023334;28;20037;-73
2023/03/30 12:11:05;;;;;;;15.73;3.65;;;16.60;99.90;;;;;;5034234;28;20044;-73
2023/03/30 12:13:31;;;;;;;18.10;4.18;;;16.60;99.90;;;;;;5031886;28;20075;-73
2023/03/30 12:16:05;;;;;;;19.85;3.90;;;16.60;99.90;;;;;;5043702;28;20020;-73
2023/03/30 12:18:36;;;;;;;13.88;4.18;;;16.60;99.90;;;;;;5040015;28;20025;-74
2023/03/30 12:21:29;;;;;;;14.43;4.35;;;16.70;99.90;;;;;;5043643;28;20028;-73
2023/03/30 12:24:07;;;;;;;17.63;4.18;;;16.80;99.90;;;;;;5041385;28;20029;-73
2023/03/30 12:26:33;;;;;;;16.13;3.75;;;16.70;99.90;;;;;;5039016;28;20018;-73
2023/03/30 12:29:11;;;;;;;15.25;2.83;;;16.60;99.90;;;;;;5043513;28;20027;-73
2023/03/30 12:31:57;;;;;;;13.07;3.35;;;16.40;99.90;;;;;;5043701;28;20784;-73
2023/03/30 12:34:26;;;;;;;19.00;4.28;;;16.40;99.70;;;;;;5029735;28;20063;-73
2023/03/30 12:37:03;;;;;;;15.50;3.20;;;16.30;99.90;;;;;;5029695;28;20147;-73
2023/03/30 12:39:33;;;;;;;13.95;3.55;;;16.30;99.90;;;;;;5029947;28;20052;-73
2023/03/30 12:42:14;;;;;;;14.70;3.72;;;16.30;99.90;;;;;;5030689;28;20045;-73
2023/03/30 12:44:51;;;;;;;13.68;3.15;;;16.40;99.90;;;;;;5042353;28;20112;-73
2023/03/30 12:47:54;;;;;;;16.33;2.85;;;16.30;99.90;;;;;;5044995;28;20474;-73
2023/03/30 12:50:31;;;;;;;20.05;3.75;;;16.30;99.90;;;;;;5025274;28;20029;-73
2023/03/30 12:53:35;;;;;;;14.82;3.75;;;16.20;99.90;;;;;;5043406;28;20448;-73
2023/03/30 12:56:18;;;;;;;16.70;3.20;;;16.30;99.90;;;;;;4982183;28;20820;-73
2023/03/30 12:59:04;;;;;;;12.47;2.93;;;16.20;99.90;;;;;;4982343;28;20395;-73
2023/03/30 13:01:38;;;;;;;18.30;4.15;;;16.30;99.90;;;;;;4968844;28;20162;-73
2023/03/30 13:04:08;;;;;;;14.10;3.88;;;16.40;99.90;;;;;;4969644;28;20447;-73
2023/03/30 13:06:37;;;;;;;11.23;2.67;;;16.50;99.90;;;;;;4969105;28;20161;-73
2023/03/30 13:09:14;;;;;;;20.73;4.18;;;16.50;99.90;;;;;;4968525;28;20417;-73